Aérodrome :







RETROUVEZ-NOUS SUR...

 
LOGIN :

S'inscrire | Disclaimer

   EN    FR    IT 

 









Légende :    VFR   VFR Marginal   IFR   IFR Intensif   IFR Très Intensif
Visi : 
Plafond : 
>= 8 km
>= 3000ft
5 à 8 km
1000 à 3000 ft
1500m à 5 km
500 à 1000 ft
800 à 1500m
200 à 500 ft
< 800m
< 200 ft
Symboles :   Orages  Brouillard  Fortes neiges  Fortes précipitations  Vent > 20 kt






- Altitude de l'aérodrome : 83 ft


KBHB - Hancock County-Bar Harbor

DERNIER METAR :
  • 020456Z AUTO 01010KT 10SM -RA OVC010 03/02 A2965 RMK AO2 CIG 007V012 SLP042 P0006 T00280017

METARs EXPIRÉS :
  • 020356Z AUTO 36009KT 10SM -RA OVC010 03/02 A2968 RMK AO2 CIG 007V012 SLP054 P0006 T00280022 400560000
  • 020256Z AUTO 01010G20KT 10SM -RA OVC010 03/02 A2970 RMK AO2 CIG 007V013 SLP058 P0002 60003 T00280022 58014

TAF KBHB
Valide du 02 à 06h jusqu'au 03 à 06h UTC


020520Z 0206/0306 01010KT 6SM -RA OVC009
FM020900 01012G20KT 3SM -RA BR OVC006
FM022000 02015G25KT 3SM -RA OVC010 WS020/07045KT



MET'MAP, la Météo Aéronautique d'un coup d'oeil ! - Copyright ORBIFLY Décembre 2007 - Disclaimer

ORBIFLY MET'MAP TEAM :

Programmation & Développement : Alexandra Zaïnal
Sur une idée originale de : Baudouin d'Aumeries
Assistance à la programmation : Marc-Olivier Méhu
Soutien technique & logistique : Manuel Goepfert

Contact : metmap@orbifly.com




SOURCES & CREDITS :

   NOAA